Time;durP1;ratioP1;P1;durP2;ratioP2;P2;SDS_P1;SDS_P2;PMS_P1;PMS_P2;Temp;Humidity;BMP_temperature;BMP_pressure;BME280_temperature;BME280_humidity;BME280_pressure;Samples;Min_cycle;Max_cycle;Signal;HPM_P1;HPM_P2
2023/08/10 00:00:12;;;;;;;;;;;;;;;12.73;69.07;101421.73;109181;1256;58775;-86
2023/08/10 00:02:59;;;;;;;;;;;;;;;12.72;69.15;101421.35;108922;1256;124327;-88
2023/08/10 00:05:26;;;;;;;;;;;;;;;12.71;69.11;101425.05;108960;1256;74473;-86
2023/08/10 00:07:52;;;;;;;;;;;;;;;12.68;69.14;101424.43;108944;1256;66987;-86
2023/08/10 00:10:19;;;;;;;;;;;;;;;12.65;69.07;101427.70;108815;1256;124555;-86
2023/08/10 00:12:46;;;;;;;;;;;;;;;12.61;69.19;101422.65;108913;1256;59475;-85
2023/08/10 00:15:13;;;;;;;;;;;;;;;12.58;69.16;101427.13;108703;1256;124292;-87
2023/08/10 00:17:40;;;;;;;;;;;;;;;12.54;69.19;101430.73;108950;1259;75259;-87
2023/08/10 00:20:07;;;;;;;;;;;;;;;12.50;69.24;101428.86;108819;1256;67035;-86
2023/08/10 00:22:34;;;;;;;;;;;;;;;12.45;69.30;101428.39;108855;1256;124261;-87
2023/08/10 00:25:02;;;;;;;;;;;;;;;12.42;69.45;101431.27;108811;1262;59423;-87
2023/08/10 00:27:29;;;;;;;;;;;;;;;12.38;69.48;101434.00;108755;1262;125147;-87
2023/08/10 00:29:56;;;;;;;;;;;;;;;12.35;69.52;101438.81;108792;1256;73396;-86
2023/08/10 00:32:23;;;;;;;;;;;;;;;12.30;69.51;101440.42;108752;1262;125513;-85
2023/08/10 00:34:49;;;;;;;;;;;;;;;12.24;69.59;101437.45;108945;1255;72509;-86
2023/08/10 00:37:16;;;;;;;;;;;;;;;12.19;69.72;101436.77;108951;1259;59306;-86
2023/08/10 00:39:43;;;;;;;;;;;;;;;12.15;69.86;101438.42;108885;1255;125173;-86
2023/08/10 00:42:10;;;;;;;;;;;;;;;12.11;69.91;101442.19;108912;1257;74737;-85
2023/08/10 00:44:37;;;;;;;;;;;;;;;12.08;69.99;101440.67;108799;1257;124400;-86
2023/08/10 00:47:04;;;;;;;;;;;;;;;12.05;70.14;101441.67;108878;1259;72847;-86
2023/08/10 00:49:31;;;;;;;;;;;;;;;12.04;70.22;101442.33;108848;1257;59556;-86
2023/08/10 00:51:57;;;;;;;;;;;;;;;12.02;70.28;101443.31;108761;1255;124520;-87
2023/08/10 00:54:24;;;;;;;;;;;;;;;11.98;70.30;101444.59;108906;1256;74829;-87
2023/08/10 00:56:51;;;;;;;;;;;;;;;11.94;70.36;101440.95;108694;1272;125380;-87
2023/08/10 00:59:18;;;;;;;;;;;;;;;11.89;70.43;101441.16;108932;1256;71369;-86
2023/08/10 01:01:45;;;;;;;;;;;;;;;11.85;70.49;101440.83;108717;1262;59833;-85
2023/08/10 01:04:12;;;;;;;;;;;;;;;11.80;70.57;101441.91;108773;1256;125607;-85
2023/08/10 01:07:08;;;;;;;;;;;;;;;11.75;70.57;101442.27;108928;1256;75139;-86
2023/08/10 01:09:40;;;;;;;;;;;;;;;11.67;70.62;101442.22;108742;1256;124760;-85
2023/08/10 01:12:32;;;;;;;;;;;;;;;11.61;70.70;101442.90;108747;1256;72151;-86
2023/08/10 01:15:07;;;;;;;;;;;;;;;11.54;70.92;101442.67;108673;1255;125032;-86
2023/08/10 01:17:36;;;;;;;;;;;;;;;11.49;70.84;101443.38;108675;1261;59913;-86
2023/08/10 01:20:04;;;;;;;;;;;;;;;11.44;71.04;101446.03;108642;1261;73054;-86
2023/08/10 01:22:50;;;;;;;;;;;;;;;11.39;71.18;101446.58;108592;1262;125939;-86
2023/08/10 01:25:17;;;;;;;;;;;;;;;11.34;71.37;101445.35;108837;1256;70933;-86
2023/08/10 01:27:44;;;;;;;;;;;;;;;11.32;71.48;101443.36;108659;1256;124813;-87
2023/08/10 01:30:11;;;;;;;;;;;;;;;11.31;71.62;101443.14;108718;1259;60604;-86
2023/08/10 01:32:38;;;;;;;;;;;;;;;11.30;71.76;101445.05;108652;1256;125061;-84
2023/08/10 01:35:06;;;;;;;;;;;;;;;11.31;71.97;101447.55;108890;1257;67554;-86
2023/08/10 01:37:33;;;;;;;;;;;;;;;11.32;72.02;101445.64;108736;1262;71656;-86
2023/08/10 01:40:06;;;;;;;;;;;;;;;11.33;72.02;101447.09;108678;1256;125184;-85
2023/08/10 01:42:33;;;;;;;;;;;;;;;11.34;72.18;101442.55;108717;1256;60124;-85
2023/08/10 01:45:03;;;;;;;;;;;;;;;11.36;72.25;101444.90;108606;1256;125861;-86
2023/08/10 01:47:49;;;;;;;;;;;;;;;11.41;72.45;101437.15;108759;1256;67218;-86
2023/08/10 01:50:17;;;;;;;;;;;;;;;11.51;72.54;101441.86;108840;1256;72615;-86
2023/08/10 01:53:04;;;;;;;;;;;;;;;11.60;72.56;101439.67;108781;1258;59095;-85
2023/08/10 01:55:30;;;;;;;;;;;;;;;11.70;72.55;101441.40;108818;1256;59436;-85
2023/08/10 01:57:57;;;;;;;;;;;;;;;11.73;72.36;101442.23;108707;1257;125523;-86
2023/08/10 02:00:24;;;;;;;;;;;;;;;11.75;72.42;101444.89;108689;1258;67092;-86
2023/08/10 02:02:52;;;;;;;;;;;;;;;11.75;72.39;101447.00;108714;1256;125691;-85
2023/08/10 02:05:19;;;;;;;;;;;;;;;11.74;72.27;101445.94;108765;1259;60099;-86
2023/08/10 02:07:48;;;;;;;;;;;;;;;11.73;72.27;101445.73;108758;1262;58995;-85
2023/08/10 02:10:15;;;;;;;;;;;;;;;11.73;72.23;101449.94;108761;1256;125677;-86
2023/08/10 02:12:42;;;;;;;;;;;;;;;11.73;72.39;101446.25;108704;1262;64839;-85
2023/08/10 02:15:12;;;;;;;;;;;;;;;11.73;72.41;101442.05;108496;1262;124872;-85
2023/08/10 02:17:40;;;;;;;;;;;;;;;11.75;72.49;101441.73;108928;1259;59392;-85
2023/08/10 02:20:14;;;;;;;;;;;;;;;11.77;72.52;101434.23;108811;1257;60143;-86
2023/08/10 02:22:50;;;;;;;;;;;;;;;11.78;72.54;101437.99;108752;1255;125078;-86
2023/08/10 02:25:18;;;;;;;;;;;;;;;11.81;72.58;101438.05;109011;1254;67583;-85
2023/08/10 02:27:46;;;;;;;;;;;;;;;11.82;72.57;101439.16;108880;1259;125617;-86
2023/08/10 02:30:14;;;;;;;;;;;;;;;11.86;72.72;101443.48;108870;1256;59137;-86
2023/08/10 02:32:40;;;;;;;;;;;;;;;11.91;72.71;101445.77;108725;1257;126015;-86
2023/08/10 02:35:09;;;;;;;;;;;;;;;11.95;72.81;101442.73;109033;1254;74720;-86
2023/08/10 02:37:36;;;;;;;;;;;;;;;12.01;72.87;101441.52;108806;1259;65886;-86
2023/08/10 02:40:04;;;;;;;;;;;;;;;12.09;72.98;101439.30;108808;1256;126159;-85
2023/08/10 02:42:31;;;;;;;;;;;;;;;12.18;73.03;101436.73;108856;1254;59648;-86
2023/08/10 02:44:58;;;;;;;;;;;;;;;12.30;73.07;101438.16;108872;1257;126227;-87
2023/08/10 02:47:25;;;;;;;;;;;;;;;12.40;73.07;101439.68;108946;1259;72861;-87
2023/08/10 02:49:52;;;;;;;;;;;;;;;12.52;72.92;101438.23;108998;1256;66767;-87
2023/08/10 02:52:19;;;;;;;;;;;;;;;12.62;72.86;101435.01;108964;1257;125039;-87
2023/08/10 02:54:46;;;;;;;;;;;;;;;12.71;72.81;101435.23;109104;1255;59737;-86
2023/08/10 02:57:12;;;;;;;;;;;;;;;12.76;72.73;101437.69;108904;1256;126161;-86
2023/08/10 02:59:39;;;;;;;;;;;;;;;12.80;72.56;101435.50;108853;1261;75596;-86
2023/08/10 03:02:06;;;;;;;;;;;;;;;12.84;72.53;101437.17;109067;1256;65970;-87
2023/08/10 03:04:36;;;;;;;;;;;;;;;12.89;72.53;101441.19;108762;1258;126067;-88
2023/08/10 03:07:03;;;;;;;;;;;;;;;12.94;72.45;101443.96;108820;1261;59150;-87
2023/08/10 03:09:31;;;;;;;;;;;;;;;12.96;72.37;101437.52;108674;1257;125101;-87
2023/08/10 03:11:58;;;;;;;;;;;;;;;13.00;72.31;101436.02;108822;1261;74627;-87
2023/08/10 03:14:25;;;;;;;;;;;;;;;13.03;72.32;101443.14;108919;1259;124303;-86
2023/08/10 03:16:52;;;;;;;;;;;;;;;13.06;72.26;101445.86;108756;1262;73748;-86
2023/08/10 03:19:19;;;;;;;;;;;;;;;13.09;72.23;101446.64;108739;1257;59564;-86
2023/08/10 03:21:46;;;;;;;;;;;;;;;13.12;72.26;101449.70;108813;1259;124404;-85
2023/08/10 03:24:13;;;;;;;;;;;;;;;13.12;72.05;101449.01;108800;1261;75341;-85
2023/08/10 03:26:40;;;;;;;;;;;;;;;13.12;72.09;101456.05;108862;1259;124900;-86
2023/08/10 03:29:06;;;;;;;;;;;;;;;13.12;72.03;101457.30;108840;1258;73677;-86
2023/08/10 03:31:33;;;;;;;;;;;;;;;13.15;72.13;101462.13;108855;1255;59174;-86
2023/08/10 03:34:00;;;;;;;;;;;;;;;13.19;72.09;101457.81;108922;1257;124470;-86
2023/08/10 03:36:27;;;;;;;;;;;;;;;13.22;72.05;101461.43;108853;1256;74398;-86
2023/08/10 03:38:54;;;;;;;;;;;;;;;13.26;72.12;101460.11;108730;1261;124866;-89
2023/08/10 03:41:21;;;;;;;;;;;;;;;13.30;72.07;101465.38;108786;1257;72560;-88
2023/08/10 03:43:48;;;;;;;;;;;;;;;13.34;72.00;101460.70;108776;1262;59353;-89
2023/08/10 03:46:15;;;;;;;;;;;;;;;13.37;72.05;101462.73;108841;1258;124318;-86
2023/08/10 03:48:45;;;;;;;;;;;;;;;13.42;71.99;101460.55;108760;1262;73716;-88
2023/08/10 03:51:11;;;;;;;;;;;;;;;13.47;72.03;101458.55;108758;1260;124980;-88
2023/08/10 03:53:38;;;;;;;;;;;;;;;13.53;72.10;101460.11;108855;1260;72059;-88
2023/08/10 03:56:06;;;;;;;;;;;;;;;13.57;71.80;101464.44;108810;1258;59373;-88
2023/08/10 03:58:33;;;;;;;;;;;;;;;13.60;71.84;101462.58;108728;1257;125711;-87
2023/08/10 04:01:02;;;;;;;;;;;;;;;13.67;71.84;101461.85;108812;1257;75347;-86
2023/08/10 04:03:29;;;;;;;;;;;;;;;13.73;71.72;101455.64;108722;1257;124597;-87
2023/08/10 04:05:56;;;;;;;;;;;;;;;13.82;71.87;101455.67;108916;1257;71356;-85
2023/08/10 04:08:23;;;;;;;;;;;;;;;13.93;71.89;101454.16;108726;1257;126110;-86
2023/08/10 04:10:50;;;;;;;;;;;;;;;14.03;71.83;101449.09;108895;1256;60630;-86
2023/08/10 04:13:17;;;;;;;;;;;;;;;14.15;71.81;101449.88;108946;1256;73915;-86
2023/08/10 04:15:44;;;;;;;;;;;;;;;14.30;71.69;101452.66;108688;1258;124531;-87
2023/08/10 04:18:11;;;;;;;;;;;;;;;14.43;71.53;101451.70;109018;1260;73719;-86
2023/08/10 04:20:38;;;;;;;;;;;;;;;14.56;71.27;101445.09;108862;1256;125129;-86
2023/08/10 04:23:05;;;;;;;;;;;;;;;14.70;71.26;101446.78;108865;1257;59436;-87
2023/08/10 04:25:32;;;;;;;;;;;;;;;14.86;70.98;101441.96;108808;1257;74758;-89
2023/08/10 04:27:58;;;;;;;;;;;;;;;15.00;70.82;101445.23;108898;1260;124825;-89
2023/08/10 04:30:29;;;;;;;;;;;;;;;15.13;70.47;101445.28;109228;1257;72644;-89
2023/08/10 04:32:56;;;;;;;;;;;;;;;15.25;70.32;101444.77;109041;1257;124777;-87
2023/08/10 04:35:23;;;;;;;;;;;;;;;15.36;70.03;101445.84;109105;1257;59093;-88
2023/08/10 04:37:53;;;;;;;;;;;;;;;15.51;69.75;101444.30;109354;1255;73674;-90
2023/08/10 04:40:20;;;;;;;;;;;;;;;15.61;69.54;101450.13;109023;1256;123779;-89
2023/08/10 04:42:48;;;;;;;;;;;;;;;15.75;69.38;101448.25;109136;1256;70954;-91
2023/08/10 04:45:15;;;;;;;;;;;;;;;15.88;69.15;101452.89;108733;1257;124385;-88
2023/08/10 04:47:44;;;;;;;;;;;;;;;16.02;69.04;101456.95;108981;1257;60524;-94
2023/08/10 04:50:12;;;;;;;;;;;;;;;16.16;68.80;101457.50;108973;1256;75133;-89
2023/08/10 04:52:39;;;;;;;;;;;;;;;16.28;68.47;101460.14;108955;1258;125563;-90
2023/08/10 04:55:07;;;;;;;;;;;;;;;16.36;68.13;101462.71;108881;1257;72648;-90
2023/08/10 04:57:34;;;;;;;;;;;;;;;16.43;68.03;101459.98;108896;1257;124839;-89
2023/08/10 05:00:14;;;;;;;;;;;;;;;16.54;67.99;101459.05;108891;1260;59279;-88
2023/08/10 05:02:41;;;;;;;;;;;;;;;16.64;67.77;101461.11;108709;1257;124999;-89
2023/08/10 05:05:11;;;;;;;;;;;;;;;16.74;67.51;101466.36;108696;1267;67948;-89
2023/08/10 05:07:38;;;;;;;;;;;;;;;16.81;67.14;101465.75;108799;1257;72443;-93
2023/08/10 05:10:06;;;;;;;;;;;;;;;16.86;66.91;101467.23;108831;1257;124650;-91
2023/08/10 05:12:34;;;;;;;;;;;;;;;16.94;66.76;101470.67;109062;1257;58968;-91
2023/08/10 05:15:01;;;;;;;;;;;;;;;17.03;66.59;101470.42;108774;1256;124196;-91
2023/08/10 05:17:28;;;;;;;;;;;;;;;17.15;66.53;101471.42;109045;1254;66889;-90
2023/08/10 05:19:55;;;;;;;;;;;;;;;17.32;66.35;101477.95;109096;1254;72685;-90
2023/08/10 05:22:22;;;;;;;;;;;;;;;17.49;66.12;101479.18;108774;1256;124249;-88
2023/08/10 05:24:49;;;;;;;;;;;;;;;17.61;65.88;101478.36;108989;1257;59038;-90
2023/08/10 05:27:15;;;;;;;;;;;;;;;17.78;65.81;101481.88;108810;1254;124591;-90
2023/08/10 05:29:42;;;;;;;;;;;;;;;18.00;65.68;101479.39;109050;1260;66939;-90
2023/08/10 05:32:09;;;;;;;;;;;;;;;18.19;65.40;101482.70;108795;1258;71128;-92
2023/08/10 05:34:36;;;;;;;;;;;;;;;18.42;65.10;101482.79;108877;1257;124775;-91
2023/08/10 05:37:03;;;;;;;;;;;;;;;18.82;65.28;101484.38;108918;1254;59872;-91
2023/08/10 05:39:30;;;;;;;;;;;;;;;19.62;65.04;101480.91;108710;1254;124889;-91
2023/08/10 05:41:57;;;;;;;;;;;;;;;20.05;63.58;101483.73;109111;1254;67082;-91
2023/08/10 05:44:24;;;;;;;;;;;;;;;20.14;62.82;101485.67;108746;1260;124460;-90
2023/08/10 05:46:51;;;;;;;;;;;;;;;20.13;62.31;101486.20;108824;1257;59884;-90
2023/08/10 05:49:18;;;;;;;;;;;;;;;20.09;61.95;101489.42;108798;1254;59994;-91
2023/08/10 05:51:48;;;;;;;;;;;;;;;19.98;61.63;101489.98;108883;1259;124674;-91
2023/08/10 05:54:15;;;;;;;;;;;;;;;19.91;61.38;101488.20;108834;1262;67092;-91
2023/08/10 05:56:42;;;;;;;;;;;;;;;19.81;61.30;101494.10;108612;1263;124937;-91
2023/08/10 05:59:12;;;;;;;;;;;;;;;19.71;61.26;101492.50;109003;1254;59053;-90
2023/08/10 06:01:43;;;;;;;;;;;;;;;19.60;61.07;101492.49;108877;1254;59325;-91
2023/08/10 06:04:14;;;;;;;;;;;;;;;19.47;61.03;101488.40;108726;1257;124249;-90
2023/08/10 06:06:41;;;;;;;;;;;;;;;19.37;60.96;101486.80;108757;1257;66474;-90
2023/08/10 06:09:11;;;;;;;;;;;;;;;19.24;60.93;101485.02;108913;1255;124192;-90
2023/08/10 06:11:48;;;;;;;;;;;;;;;19.15;60.93;101488.92;109056;1254;77713;-90
2023/08/10 06:14:55;;;;;;;;;;;;;;;19.07;61.11;101489.79;109222;1256;124668;-91
2023/08/10 06:17:24;;;;;;;;;;;;;;;19.08;61.14;101495.84;109166;1256;75214;-90
2023/08/10 06:20:23;;;;;;;;;;;;;;;19.12;61.08;101496.55;108685;1257;308930;-89
2023/08/10 06:23:05;;;;;;;;;;;;;;;19.16;60.83;101498.33;109100;1255;73070;-87
2023/08/10 06:25:55;;;;;;;;;;;;;;;19.17;60.70;101502.26;108926;1256;59154;-85
2023/08/10 06:28:22;;;;;;;;;;;;;;;19.19;60.54;101500.48;108943;1260;123038;-89
2023/08/10 06:30:51;;;;;;;;;;;;;;;19.18;60.34;101504.04;109026;1257;75089;-86
2023/08/10 06:33:23;;;;;;;;;;;;;;;19.21;60.34;101504.75;109114;1255;124654;-86
2023/08/10 06:35:57;;;;;;;;;;;;;;;19.22;60.14;101506.37;109195;1257;71353;-91
2023/08/10 06:38:25;;;;;;;;;;;;;;;19.22;60.07;101506.71;109006;1256;59019;-91
2023/08/10 06:40:55;;;;;;;;;;;;;;;19.18;60.05;101503.33;109132;1256;59112;-90
2023/08/10 06:43:30;;;;;;;;;;;;;;;19.16;60.07;101507.43;109158;1256;73515;-85
2023/08/10 06:45:58;;;;;;;;;;;;;;;19.13;60.08;101509.73;109069;1255;125459;-90
2023/08/10 06:48:31;;;;;;;;;;;;;;;19.10;60.07;101510.79;109010;1255;72699;-86
2023/08/10 06:51:00;;;;;;;;;;;;;;;19.11;60.08;101517.02;109169;1257;124451;-89
2023/08/10 06:53:28;;;;;;;;;;;;;;;19.14;60.21;101517.55;109269;1257;59689;-90
2023/08/10 06:56:11;;;;;;;;;;;;;;;19.23;60.00;101518.28;109103;1257;73385;-92
2023/08/10 07:01:42;;;;;;;;;;;;;;;19.34;59.85;101518.83;109052;1257;73450;-88
2023/08/10 07:04:09;;;;;;;;;;;;;;;19.41;59.74;101519.37;108921;1256;125153;-87
2023/08/10 07:07:03;;;;;;;;;;;;;;;19.46;59.77;101519.91;109015;1257;60103;-89
2023/08/10 07:09:44;;;;;;;;;;;;;;;19.56;59.62;101523.11;109112;1259;124025;-87
2023/08/10 07:12:11;;;;;;;;;;;;;;;19.65;59.52;101524.18;108986;1256;67080;-87
2023/08/10 07:14:38;;;;;;;;;;;;;;;19.71;59.30;101525.61;109101;1256;124223;-90
2023/08/10 07:17:12;;;;;;;;;;;;;;;19.75;59.35;101523.31;109198;1259;59000;-90
2023/08/10 07:19:47;;;;;;;;;;;;;;;19.83;59.38;101526.17;109087;1257;58924;-91
2023/08/10 07:22:21;;;;;;;;;;;;;;;19.97;59.25;101531.50;108892;1257;124244;-91
2023/08/10 07:24:56;;;;;;;;;;;;;;;20.05;59.11;101533.96;109023;1257;67421;-91
2023/08/10 07:27:42;;;;;;;;;;;;;;;20.12;58.96;101537.34;108867;1257;124442;-90
2023/08/10 07:30:21;;;;;;;;;;;;;;;20.18;58.79;101540.36;109210;1256;58983;-90
2023/08/10 07:33:10;;;;;;;;;;;;;;;20.23;58.57;101544.28;108900;1257;124481;-89
2023/08/10 07:35:41;;;;;;;;;;;;;;;20.27;58.53;101543.20;109120;1255;74792;-89
2023/08/10 07:38:16;;;;;;;;;;;;;;;20.34;58.42;101542.11;109256;1256;65815;-88
2023/08/10 07:40:52;;;;;;;;;;;;;;;20.38;58.32;101540.86;108919;1256;123836;-89
2023/08/10 07:43:25;;;;;;;;;;;;;;;20.37;58.14;101544.05;108886;1257;59264;-88
2023/08/10 07:45:54;;;;;;;;;;;;;;;20.39;58.10;101547.80;109054;1257;124760;-88
2023/08/10 07:48:24;;;;;;;;;;;;;;;20.44;58.08;101552.06;109106;1255;73419;-88
2023/08/10 07:51:25;;;;;;;;;;;;;;;20.53;58.07;101553.83;108936;1257;124332;-89
2023/08/10 07:53:55;;;;;;;;;;;;;;;20.62;57.79;101556.48;109083;1257;71397;-89
2023/08/10 07:56:35;;;;;;;;;;;;;;;20.71;57.75;101556.10;109065;1261;59030;-89
2023/08/10 07:59:11;;;;;;;;;;;;;;;20.97;57.83;101552.77;109077;1255;60017;-90
2023/08/10 08:01:39;;;;;;;;;;;;;;;21.32;57.49;101555.23;109182;1256;74663;-87
2023/08/10 08:04:16;;;;;;;;;;;;;;;21.57;57.11;101552.05;108985;1255;124184;-87
2023/08/10 08:06:45;;;;;;;;;;;;;;;21.86;56.62;101555.21;109202;1257;72702;-85
2023/08/10 08:09:13;;;;;;;;;;;;;;;22.10;56.13;101556.41;108954;1256;124765;-84
2023/08/10 08:11:40;;;;;;;;;;;;;;;22.36;55.93;101557.61;109049;1256;58990;-84
2023/08/10 08:14:07;;;;;;;;;;;;;;;22.68;55.58;101559.56;109041;1257;74837;-85
2023/08/10 08:16:40;;;;;;;;;;;;;;;22.99;55.03;101556.31;108972;1257;124174;-85
2023/08/10 08:19:19;;;;;;;;;;;;;;;23.37;54.74;101552.02;109152;1257;73229;-85
2023/08/10 08:21:48;;;;;;;;;;;;;;;23.65;53.80;101556.23;108858;1256;124492;-85
2023/08/10 08:24:27;;;;;;;;;;;;;;;23.70;52.80;101559.20;109053;1257;59370;-86
2023/08/10 08:26:56;;;;;;;;;;;;;;;23.61;52.00;101557.73;108896;1256;124331;-85
2023/08/10 08:29:27;;;;;;;;;;;;;;;23.40;51.55;101561.83;109181;1255;67065;-85
2023/08/10 08:32:06;;;;;;;;;;;;;;;23.27;51.57;101561.30;109090;1256;72702;-84
2023/08/10 08:34:36;;;;;;;;;;;;;;;23.15;51.18;101559.51;109035;1256;123991;-86
2023/08/10 08:37:14;;;;;;;;;;;;;;;23.02;51.05;101562.89;109084;1256;58932;-84
2023/08/10 08:39:43;;;;;;;;;;;;;;;23.00;51.00;101567.92;109086;1257;124046;-84
2023/08/10 08:42:17;;;;;;;;;;;;;;;22.96;50.78;101569.06;109214;1256;66202;-84
2023/08/10 08:44:50;;;;;;;;;;;;;;;22.91;50.57;101566.77;108987;1256;124159;-84
2023/08/10 08:47:24;;;;;;;;;;;;;;;22.89;50.59;101570.02;109033;1257;58958;-85
2023/08/10 08:49:58;;;;;;;;;;;;;;;22.77;50.23;101570.71;109015;1257;59914;-85
2023/08/10 08:52:27;;;;;;;;;;;;;;;22.59;50.00;101573.09;109002;1257;122984;-87
2023/08/10 08:55:28;;;;;;;;;;;;;;;22.54;49.99;101570.64;109079;1256;66813;-86
2023/08/10 08:57:57;;;;;;;;;;;;;;;22.57;49.95;101569.71;109123;1255;124021;-86
2023/08/10 09:00:25;;;;;;;;;;;;;;;22.58;49.77;101576.13;109062;1255;58987;-87
2023/08/10 09:02:54;;;;;;;;;;;;;;;22.59;49.80;101579.70;108970;1256;124195;-87
2023/08/10 09:05:26;;;;;;;;;;;;;;;22.56;49.57;101580.81;109075;1260;76068;-86
2023/08/10 09:15:08;;;;;;;;;;;;;;;22.65;49.04;101583.04;108653;1261;124264;-85
2023/08/10 09:21:10;;;;;;;;;;;;;;;22.89;48.66;101581.13;108714;1261;124653;-87
2023/08/10 09:23:44;;;;;;;;;;;;;;;22.91;48.30;101581.63;108738;1260;67328;-87
2023/08/10 09:26:16;;;;;;;;;;;;;;;22.89;48.05;101582.02;108663;1262;72594;-87
2023/08/10 09:28:57;;;;;;;;;;;;;;;22.99;47.90;101585.13;108648;1260;124057;-87
2023/08/10 09:31:43;;;;;;;;;;;;;;;23.12;47.50;101584.25;108791;1260;59101;-86
2023/08/10 09:34:13;;;;;;;;;;;;;;;23.28;47.09;101583.86;108591;1266;124547;-87
2023/08/10 09:36:53;;;;;;;;;;;;;;;23.36;46.87;101584.10;109029;1261;67145;-85
2023/08/10 09:39:33;;;;;;;;;;;;;;;23.53;46.62;101588.31;108895;1256;124249;-84
2023/08/10 09:42:01;;;;;;;;;;;;;;;23.67;46.54;101589.53;109081;1256;59009;-86
2023/08/10 09:47:51;;;;;;;;;;;;;;;23.82;45.50;101592.54;109184;1256;73288;-86
2023/08/10 09:50:30;;;;;;;;;;;;;;;23.83;45.09;101596.30;109055;1256;65792;-86
2023/08/10 09:53:16;;;;;;;;;;;;;;;23.89;45.12;101597.27;109088;1255;126921;-86
2023/08/10 09:55:44;;;;;;;;;;;;;;;24.06;44.88;101602.35;109210;1256;59035;-86
2023/08/10 09:58:11;;;;;;;;;;;;;;;24.17;44.78;101604.67;108897;1256;124537;-85
2023/08/10 10:00:43;;;;;;;;;;;;;;;24.28;44.58;101606.98;109103;1256;74643;-84
2023/08/10 10:03:41;;;;;;;;;;;;;;;24.28;44.52;101603.94;108926;1256;124290;-85
2023/08/10 10:06:08;;;;;;;;;;;;;;;24.34;44.46;101605.80;109173;1256;70432;-86
2023/08/10 10:08:50;;;;;;;;;;;;;;;24.40;43.90;101610.52;109060;1256;59167;-86
2023/08/10 10:14:43;;;;;;;;;;;;;;;24.58;44.30;101611.65;109201;1255;73863;-86
2023/08/10 10:17:23;;;;;;;;;;;;;;;24.76;43.82;101615.25;108903;1256;124355;-86
2023/08/10 10:20:04;;;;;;;;;;;;;;;24.85;43.54;101624.02;109252;1255;72555;-89
2023/08/10 10:22:52;;;;;;;;;;;;;;;25.02;43.38;101622.24;108885;1256;124242;-90
2023/08/10 10:25:20;;;;;;;;;;;;;;;25.07;43.04;101628.96;109129;1255;60149;-89
2023/08/10 10:27:51;;;;;;;;;;;;;;;25.04;42.82;101628.84;108923;1256;124007;-90
2023/08/10 10:30:22;;;;;;;;;;;;;;;25.14;42.73;101630.77;109056;1255;67120;-90
2023/08/10 10:33:10;;;;;;;;;;;;;;;25.29;42.36;101630.49;108989;1256;124561;-86
2023/08/10 10:36:05;;;;;;;;;;;;;;;25.27;42.03;101629.29;108943;1257;59013;-86
2023/08/10 10:38:41;;;;;;;;;;;;;;;25.28;41.84;101628.36;109062;1256;59914;-86
2023/08/10 10:41:09;;;;;;;;;;;;;;;25.33;41.76;101629.69;108952;1256;124138;-84
2023/08/10 10:43:36;;;;;;;;;;;;;;;25.29;41.95;101631.73;109103;1256;67217;-86
2023/08/10 10:46:30;;;;;;;;;;;;;;;25.21;41.66;101635.86;109141;1255;124090;-86
2023/08/10 10:48:57;;;;;;;;;;;;;;;24.98;41.50;101634.89;109063;1256;58845;-86
2023/08/10 10:51:27;;;;;;;;;;;;;;;24.92;41.34;101632.48;109050;1256;124718;-86
2023/08/10 10:53:57;;;;;;;;;;;;;;;24.93;41.27;101630.88;109297;1255;74499;-86
2023/08/10 10:56:25;;;;;;;;;;;;;;;25.05;41.40;101634.59;109045;1256;66969;-86
2023/08/10 10:59:07;;;;;;;;;;;;;;;25.20;41.24;101635.15;109109;1256;124013;-86
2023/08/10 11:01:36;;;;;;;;;;;;;;;25.26;41.17;101638.13;109106;1256;58979;-84
2023/08/10 11:04:05;;;;;;;;;;;;;;;25.24;41.04;101637.25;108966;1257;124223;-85
2023/08/10 11:06:40;;;;;;;;;;;;;;;25.18;40.98;101635.52;109111;1256;74600;-89
2023/08/10 11:09:15;;;;;;;;;;;;;;;25.17;40.97;101643.82;109156;1255;124181;-85
2023/08/10 11:15:17;;;;;;;;;;;;;;;25.32;40.55;101643.55;109226;1256;58965;-87
2023/08/10 11:17:57;;;;;;;;;;;;;;;25.38;40.49;101638.92;109055;1257;60229;-87
2023/08/10 11:20:35;;;;;;;;;;;;;;;25.44;40.52;101636.98;109095;1256;73401;-87
2023/08/10 11:23:15;;;;;;;;;;;;;;;25.53;40.45;101641.44;108885;1256;124096;-86
2023/08/10 11:25:52;;;;;;;;;;;;;;;25.61;40.45;101639.45;109074;1256;72830;-88
2023/08/10 11:28:24;;;;;;;;;;;;;;;25.63;40.37;101636.01;109012;1256;122951;-88
2023/08/10 11:31:02;;;;;;;;;;;;;;;25.48;40.04;101636.89;109087;1255;58996;-87
2023/08/10 11:33:29;;;;;;;;;;;;;;;25.35;40.13;101643.27;108911;1256;124713;-87
2023/08/10 11:36:10;;;;;;;;;;;;;;;25.32;39.95;101639.95;109148;1256;65937;-88
2023/08/10 11:38:45;;;;;;;;;;;;;;;25.36;40.08;101640.93;109091;1256;71255;-85
2023/08/10 11:41:15;;;;;;;;;;;;;;;25.48;39.74;101639.04;108971;1255;124204;-85
2023/08/10 11:43:46;;;;;;;;;;;;;;;25.50;39.72;101637.73;109034;1256;60303;-87
2023/08/10 11:46:15;;;;;;;;;;;;;;;25.50;39.63;101638.82;109001;1256;124148;-86
2023/08/10 11:49:01;;;;;;;;;;;;;;;25.43;39.43;101640.77;109083;1255;65861;-84
2023/08/10 11:51:44;;;;;;;;;;;;;;;25.37;39.65;101645.40;108956;1256;124640;-89
2023/08/10 11:54:17;;;;;;;;;;;;;;;25.42;39.61;101647.43;108997;1256;59077;-85
2023/08/10 11:56:45;;;;;;;;;;;;;;;25.40;39.55;101649.27;109101;1255;59050;-85
2023/08/10 11:59:35;;;;;;;;;;;;;;;;;;;;;
2023/08/10 12:02:04;;;;;;;;;;;;;;;25.28;39.22;101648.48;109050;1257;67455;-85
2023/08/10 12:04:33;;;;;;;;;;;;;;;25.32;39.34;101646.41;108924;1256;124120;-86
2023/08/10 12:07:07;;;;;;;;;;;;;;;25.33;39.37;101644.59;109140;1256;59113;-86
2023/08/10 12:09:47;;;;;;;;;;;;;;;25.29;39.45;101643.60;108956;1255;124522;-86
2023/08/10 12:12:25;;;;;;;;;;;;;;;25.17;39.43;101643.85;109314;1255;73494;-87
2023/08/10 12:15:35;;;;;;;;;;;;;;;25.12;39.47;101640.33;109206;1255;68287;-87
2023/08/10 12:18:06;;;;;;;;;;;;;;;25.40;39.65;101635.29;109239;1255;71427;-87
2023/08/10 12:20:54;;;;;;;;;;;;;;;25.46;39.31;101630.64;109130;1257;58966;-85
2023/08/10 12:23:35;;;;;;;;;;;;;;;25.37;38.89;101629.95;108927;1255;125058;-85
2023/08/10 12:26:13;;;;;;;;;;;;;;;25.19;38.69;101633.20;109106;1255;72387;-88
2023/08/10 12:28:40;;;;;;;;;;;;;;;24.95;38.39;101636.21;109024;1256;124243;-89
2023/08/10 12:31:14;;;;;;;;;;;;;;;24.81;38.68;101637.21;109038;1256;72308;-90
2023/08/10 12:33:41;;;;;;;;;;;;;;;24.83;38.71;101640.41;108874;1257;124588;-88
2023/08/10 12:36:16;;;;;;;;;;;;;;;24.91;38.55;101640.42;109010;1256;59818;-88
2023/08/10 12:38:43;;;;;;;;;;;;;;;24.99;38.33;101637.21;109107;1256;74413;-88
2023/08/10 12:41:19;;;;;;;;;;;;;;;24.91;38.54;101642.95;109063;1255;124124;-86
2023/08/10 12:46:56;;;;;;;;;;;;;;;24.96;38.09;101646.79;109199;1255;123005;-85
2023/08/10 12:49:54;;;;;;;;;;;;;;;25.01;38.14;101645.05;109188;1256;58997;-86
2023/08/10 12:52:29;;;;;;;;;;;;;;;25.05;37.99;101648.38;109117;1255;126324;-85
2023/08/10 12:55:20;;;;;;;;;;;;;;;25.03;38.26;101654.90;109307;1255;65794;-87
2023/08/10 12:57:53;;;;;;;;;;;;;;;24.92;38.19;101656.38;108977;1256;124563;-86
2023/08/10 13:03:44;;;;;;;;;;;;;;;24.75;38.16;101656.73;109219;1255;124210;-86
2023/08/10 13:06:20;;;;;;;;;;;;;;;24.74;38.00;101658.17;109326;1255;74635;-86
2023/08/10 13:08:48;;;;;;;;;;;;;;;24.69;38.13;101655.05;109153;1255;67566;-87
2023/08/10 13:11:18;;;;;;;;;;;;;;;24.57;37.89;101656.89;109023;1255;124049;-86
2023/08/10 13:13:46;;;;;;;;;;;;;;;24.39;37.72;101658.27;109089;1256;59144;-86
2023/08/10 13:16:31;;;;;;;;;;;;;;;24.28;37.85;101657.20;108942;1257;124445;-87